createdAt,value
2022-08-14T00:01:55.317Z,2.00
2022-08-14T00:04:36.065Z,2.35
2022-08-14T00:07:13.901Z,2.50
2022-08-14T00:10:01.626Z,2.03
2022-08-14T00:12:39.149Z,2.22
2022-08-14T00:15:23.851Z,2.45
2022-08-14T00:17:53.668Z,1.98
2022-08-14T00:20:31.090Z,1.98
2022-08-14T00:23:16.245Z,1.85
2022-08-14T00:25:54.107Z,1.92
2022-08-14T00:28:29.104Z,2.22
2022-08-14T00:31:02.422Z,2.30
2022-08-14T00:33:39.276Z,1.85
2022-08-14T00:36:35.669Z,1.95
2022-08-14T00:39:06.652Z,2.40
2022-08-14T00:41:38.974Z,2.63
2022-08-14T00:44:08.143Z,2.17
2022-08-14T00:46:37.935Z,2.38
2022-08-14T00:49:11.405Z,2.35
2022-08-14T00:51:44.202Z,2.80
2022-08-14T00:54:20.930Z,2.15
2022-08-14T00:56:55.519Z,2.38
2022-08-14T00:59:28.490Z,2.67
2022-08-14T01:01:58.938Z,2.50
2022-08-14T01:04:51.822Z,2.50
2022-08-14T01:07:20.712Z,2.20
2022-08-14T01:09:50.851Z,2.22
2022-08-14T01:12:26.729Z,2.60
2022-08-14T01:14:58.856Z,2.60
2022-08-14T01:17:49.574Z,2.15
2022-08-14T01:20:40.121Z,2.75
2022-08-14T01:23:16.519Z,2.70
2022-08-14T01:25:47.929Z,2.38
2022-08-14T01:28:34.340Z,1.90
2022-08-14T01:31:05.981Z,2.53
2022-08-14T01:33:59.157Z,2.30
2022-08-14T01:36:23.268Z,1.90
2022-08-14T01:38:54.108Z,3.00
2022-08-14T01:41:23.011Z,1.92
2022-08-14T01:44:01.612Z,1.88
2022-08-14T01:46:40.242Z,2.13
2022-08-14T01:49:11.661Z,2.42
2022-08-14T01:51:41.032Z,2.38
2022-08-14T01:54:14.205Z,2.20
2022-08-14T01:56:44.915Z,2.70
2022-08-14T01:59:38.207Z,2.40
2022-08-14T02:02:20.093Z,2.45
2022-08-14T02:04:56.898Z,2.50
2022-08-14T02:07:34.070Z,2.55
2022-08-14T02:10:15.868Z,2.10
2022-08-14T02:12:49.043Z,2.70
2022-08-14T02:15:25.840Z,3.28
2022-08-14T02:17:53.688Z,4.32
2022-08-14T02:20:23.480Z,3.97
2022-08-14T02:22:54.726Z,2.90
2022-08-14T02:25:23.206Z,4.22
2022-08-14T02:28:23.038Z,3.40
2022-08-14T02:30:44.708Z,4.63
2022-08-14T02:33:12.627Z,5.22
2022-08-14T02:35:43.630Z,5.28
2022-08-14T02:38:29.545Z,5.22
2022-08-14T02:40:58.358Z,6.38
2022-08-14T02:43:36.484Z,7.50
2022-08-14T02:46:10.265Z,7.63
2022-08-14T02:49:04.146Z,7.78
2022-08-14T02:51:30.444Z,7.63
2022-08-14T02:53:58.558Z,8.95
2022-08-14T02:57:13.436Z,9.43
2022-08-14T02:59:16.099Z,8.13
2022-08-14T03:01:50.987Z,8.60
2022-08-14T03:04:22.463Z,8.48
2022-08-14T03:06:58.304Z,8.75
2022-08-14T03:09:42.329Z,7.65
2022-08-14T03:12:27.219Z,8.15
2022-08-14T03:15:14.307Z,8.02
2022-08-14T03:17:57.470Z,7.40
2022-08-14T03:20:28.435Z,7.60
2022-08-14T03:23:00.047Z,8.00
2022-08-14T03:25:31.441Z,7.38
2022-08-14T03:28:02.847Z,7.40
2022-08-14T03:30:39.159Z,6.60
2022-08-14T03:33:11.857Z,6.22
2022-08-14T03:36:00.425Z,5.47
2022-08-14T03:39:12.241Z,5.88
2022-08-14T03:41:24.367Z,6.32
2022-08-14T03:43:57.914Z,5.85
2022-08-14T03:46:52.359Z,5.47
2022-08-14T03:49:24.290Z,5.47
2022-08-14T03:51:57.591Z,5.25
2022-08-14T03:54:25.935Z,5.07
2022-08-14T03:56:54.714Z,4.38
2022-08-14T03:59:22.090Z,3.60
2022-08-14T04:02:01.450Z,5.07
2022-08-14T04:04:31.001Z,5.03
2022-08-14T04:07:01.403Z,5.18
2022-08-14T04:09:29.457Z,4.40
2022-08-14T04:11:57.981Z,4.45
2022-08-14T04:14:28.070Z,4.68
2022-08-14T04:16:55.258Z,4.97
2022-08-14T04:19:24.586Z,4.63
2022-08-14T04:22:02.944Z,4.32
2022-08-14T04:24:38.479Z,4.88
2022-08-14T04:27:09.614Z,4.63
2022-08-14T04:29:45.012Z,4.55
2022-08-14T04:32:57.569Z,4.88
2022-08-14T04:35:01.058Z,3.90
2022-08-14T04:37:53.703Z,4.43
2022-08-14T04:40:40.384Z,4.43
2022-08-14T04:43:38.322Z,4.75
2022-08-14T04:46:55.623Z,4.03
2022-08-14T04:51:30.048Z,4.30
2022-08-14T04:54:04.655Z,4.22
2022-08-14T04:56:34.465Z,5.13
2022-08-14T04:59:09.993Z,4.28
2022-08-14T05:01:47.660Z,4.43
2022-08-14T05:04:19.930Z,4.20
2022-08-14T05:06:53.653Z,4.70
2022-08-14T05:09:28.983Z,3.90
2022-08-14T05:13:08.269Z,4.38
2022-08-14T05:14:53.658Z,4.95
2022-08-14T05:17:32.121Z,4.55
2022-08-14T05:21:54.998Z,4.18
2022-08-14T05:23:02.194Z,4.30
2022-08-14T05:25:30.894Z,4.45
2022-08-14T05:28:16.186Z,4.57
2022-08-14T05:30:44.514Z,4.90
2022-08-14T05:33:12.839Z,5.35
2022-08-14T05:35:42.568Z,5.97
2022-08-14T05:38:30.582Z,5.63
2022-08-14T05:40:59.846Z,4.82
2022-08-14T05:43:40.769Z,5.60
2022-08-14T05:46:15.455Z,4.93
2022-08-14T05:48:45.505Z,4.82
2022-08-14T05:51:18.264Z,4.93
2022-08-14T05:54:01.759Z,5.53
2022-08-14T05:56:36.877Z,5.50
2022-08-14T05:59:05.602Z,5.50
2022-08-14T06:01:35.372Z,5.07
2022-08-14T06:04:04.611Z,6.07
2022-08-14T06:06:36.740Z,5.22
2022-08-14T06:09:09.845Z,4.65
2022-08-14T06:11:37.822Z,5.40
2022-08-14T06:14:12.342Z,5.30
2022-08-14T06:16:48.448Z,5.40
2022-08-14T06:19:15.585Z,5.07
2022-08-14T06:21:45.585Z,5.18
2022-08-14T06:24:18.727Z,5.20
2022-08-14T06:26:54.238Z,4.35
2022-08-14T06:29:25.166Z,4.85
2022-08-14T06:31:54.624Z,5.50
2022-08-14T06:35:09.462Z,6.10
2022-08-14T06:37:17.111Z,6.00
2022-08-14T06:39:44.590Z,6.57
2022-08-14T06:42:18.359Z,6.28
2022-08-14T06:45:02.252Z,7.07
2022-08-14T06:47:30.348Z,6.35
2022-08-14T06:49:58.200Z,7.18
2022-08-14T06:52:25.840Z,6.00
2022-08-14T06:54:53.080Z,6.40
2022-08-14T06:57:21.627Z,6.20
2022-08-14T06:59:54.595Z,5.80
2022-08-14T07:02:43.642Z,6.35
2022-08-14T07:05:29.652Z,6.28
2022-08-14T07:07:57.864Z,6.05
2022-08-14T07:10:26.002Z,5.88
2022-08-14T07:13:01.919Z,6.75
2022-08-14T07:15:40.036Z,7.18
2022-08-14T07:18:12.290Z,6.32
2022-08-14T07:20:40.749Z,5.18
2022-08-14T07:23:11.200Z,7.07
2022-08-14T07:25:51.888Z,5.53
2022-08-14T07:31:05.043Z,5.28
2022-08-14T07:33:45.433Z,4.72
2022-08-14T07:36:30.250Z,5.00
2022-08-14T07:39:03.602Z,4.22
2022-08-14T07:41:42.505Z,5.88
2022-08-14T07:44:29.428Z,4.07
2022-08-14T07:46:58.491Z,4.60
2022-08-14T07:49:27.420Z,6.00
2022-08-14T07:51:55.499Z,5.55
2022-08-14T07:54:29.927Z,5.43
2022-08-14T07:57:11.744Z,3.78
2022-08-14T08:02:18.493Z,3.65
2022-08-14T08:04:49.609Z,3.38
2022-08-14T08:07:16.902Z,4.45
2022-08-14T08:09:53.454Z,3.78
2022-08-14T08:12:26.124Z,4.40
2022-08-14T08:15:07.048Z,3.92
2022-08-14T08:17:42.706Z,3.83
2022-08-14T08:20:27.194Z,3.90
2022-08-14T08:23:06.109Z,3.25
2022-08-14T08:25:39.707Z,3.65
2022-08-14T08:28:25.122Z,3.30
2022-08-14T08:31:06.931Z,3.13
2022-08-14T08:33:37.765Z,2.88
2022-08-14T08:36:13.011Z,3.67
2022-08-14T08:39:18.268Z,2.92
2022-08-14T08:41:49.451Z,3.40
2022-08-14T08:44:32.143Z,3.47
2022-08-14T08:47:06.246Z,3.60
2022-08-14T08:49:52.808Z,4.15
2022-08-14T08:52:31.380Z,2.83
2022-08-14T08:55:01.081Z,3.53
2022-08-14T08:57:36.990Z,3.42
2022-08-14T09:00:25.243Z,3.38
2022-08-14T09:02:59.307Z,3.00
2022-08-14T09:05:26.939Z,3.00
2022-08-14T09:07:56.611Z,2.85
2022-08-14T09:10:25.910Z,3.30
2022-08-14T09:12:57.763Z,3.10
2022-08-14T09:15:25.737Z,2.88
2022-08-14T09:18:10.852Z,3.13
2022-08-14T09:20:40.250Z,2.42
2022-08-14T09:23:11.058Z,2.45
2022-08-14T09:25:59.889Z,2.85
2022-08-14T09:28:28.688Z,3.25
2022-08-14T09:30:57.870Z,2.90
2022-08-14T09:33:56.636Z,2.85
2022-08-14T09:36:52.327Z,2.95
2022-08-14T09:39:58.588Z,2.75
2022-08-14T09:42:55.654Z,2.40
2022-08-14T09:45:39.782Z,2.92
2022-08-14T09:48:27.588Z,2.55
2022-08-14T09:54:17.964Z,2.22
2022-08-14T09:56:30.527Z,2.08
2022-08-14T09:59:12.162Z,2.08
2022-08-14T10:01:46.131Z,2.25
2022-08-14T10:04:33.668Z,1.73
2022-08-14T10:07:05.475Z,2.30
2022-08-14T10:09:33.462Z,1.92
2022-08-14T10:12:04.496Z,2.38
2022-08-14T10:14:36.574Z,2.33
2022-08-14T10:17:07.060Z,2.05
2022-08-14T10:19:46.923Z,2.03
2022-08-14T10:23:14.241Z,1.98
2022-08-14T10:25:12.270Z,2.20
2022-08-14T10:27:39.495Z,2.20
2022-08-14T10:30:14.997Z,1.75
2022-08-14T10:32:51.535Z,1.98
2022-08-14T10:35:22.320Z,1.65
2022-08-14T10:37:51.730Z,1.90
2022-08-14T10:40:37.748Z,2.13
2022-08-14T10:43:25.493Z,2.25
2022-08-14T10:46:04.180Z,2.10
2022-08-14T10:49:04.353Z,1.60
2022-08-14T10:51:36.065Z,2.08
2022-08-14T10:54:16.566Z,1.90
2022-08-14T10:56:57.543Z,2.30
2022-08-14T10:59:31.325Z,2.10
2022-08-14T11:02:04.494Z,1.88
2022-08-14T11:04:32.116Z,2.10
2022-08-14T11:07:00.450Z,1.60
2022-08-14T11:09:31.655Z,2.03
2022-08-14T11:12:34.958Z,2.20
2022-08-14T11:14:58.869Z,1.80
2022-08-14T11:17:38.749Z,1.63
2022-08-14T11:20:14.098Z,1.67
2022-08-14T11:22:57.037Z,1.50
2022-08-14T11:25:36.918Z,1.70
2022-08-14T11:28:19.047Z,1.42
2022-08-14T11:30:54.207Z,1.67
2022-08-14T11:33:29.536Z,1.30
2022-08-14T11:36:05.652Z,1.63
2022-08-14T11:38:46.220Z,1.50
2022-08-14T11:41:18.528Z,1.80
2022-08-14T11:43:58.199Z,1.40
2022-08-14T11:46:30.727Z,1.35
2022-08-14T11:49:06.076Z,1.42
2022-08-14T11:51:50.909Z,1.33
2022-08-14T11:54:35.012Z,1.35
2022-08-14T11:57:04.733Z,1.60
2022-08-14T11:59:35.373Z,1.52
2022-08-14T12:03:00.492Z,1.50
2022-08-14T12:05:04.153Z,1.40
2022-08-14T12:07:34.850Z,1.45
2022-08-14T12:10:26.498Z,1.50
2022-08-14T12:12:52.119Z,1.48
2022-08-14T12:15:44.763Z,1.50
2022-08-14T12:18:19.343Z,1.63
2022-08-14T12:20:52.449Z,1.35
2022-08-14T12:23:23.170Z,1.38
2022-08-14T12:26:01.281Z,1.45
2022-08-14T12:28:59.679Z,1.30
2022-08-14T12:31:36.441Z,1.33
2022-08-14T12:34:13.677Z,1.73
2022-08-14T12:36:47.691Z,1.25
2022-08-14T12:39:21.049Z,1.50
2022-08-14T12:41:57.050Z,1.65
2022-08-14T12:44:44.056Z,1.42
2022-08-14T12:47:17.860Z,1.48
2022-08-14T12:49:57.791Z,1.50
2022-08-14T12:52:43.240Z,1.85
2022-08-14T12:55:21.839Z,1.75
2022-08-14T12:57:53.334Z,1.73
2022-08-14T13:00:25.511Z,2.22
2022-08-14T13:02:56.455Z,2.22
2022-08-14T13:05:32.647Z,2.95
2022-08-14T13:08:06.477Z,2.85
2022-08-14T13:10:58.128Z,5.03
2022-08-14T13:13:34.467Z,6.80
2022-08-14T13:16:20.036Z,8.27
2022-08-14T13:18:57.298Z,6.30
2022-08-14T13:21:59.024Z,6.63
2022-08-14T13:24:20.476Z,6.72
2022-08-14T13:26:51.877Z,6.63
2022-08-14T13:29:23.152Z,5.95
2022-08-14T13:31:53.673Z,6.13
2022-08-14T13:34:27.077Z,5.25
2022-08-14T13:36:59.231Z,4.22
2022-08-14T13:39:36.212Z,3.92
2022-08-14T13:42:13.582Z,4.85
2022-08-14T13:44:42.643Z,4.72
2022-08-14T13:47:12.188Z,5.70
2022-08-14T13:49:57.605Z,5.32
2022-08-14T13:52:52.396Z,4.72
2022-08-14T13:55:18.379Z,4.28
2022-08-14T13:57:56.869Z,3.47
2022-08-14T14:00:35.665Z,3.00
2022-08-14T14:03:20.289Z,2.53
2022-08-14T14:05:54.920Z,2.42
2022-08-14T14:08:46.261Z,3.45
2022-08-14T14:11:15.649Z,1.98
2022-08-14T14:13:46.455Z,1.50
2022-08-14T14:16:22.144Z,1.42
2022-08-14T14:18:56.172Z,1.65
2022-08-14T14:21:28.694Z,1.20
2022-08-14T14:23:56.974Z,1.30
2022-08-14T14:26:25.152Z,1.20
2022-08-14T14:28:56.961Z,1.30
2022-08-14T14:31:30.018Z,0.97
2022-08-14T14:34:07.663Z,1.10
2022-08-14T14:36:52.390Z,1.20
2022-08-14T14:39:25.348Z,1.10
2022-08-14T14:42:04.172Z,1.33
2022-08-14T14:44:40.265Z,1.30
2022-08-14T14:47:13.495Z,1.30
2022-08-14T14:49:54.481Z,1.40
2022-08-14T14:52:26.895Z,1.05
2022-08-14T14:54:59.184Z,1.08
2022-08-14T14:57:34.962Z,1.05
2022-08-14T15:00:08.760Z,1.55
2022-08-14T15:02:42.744Z,1.52
2022-08-14T15:05:14.113Z,1.20
2022-08-14T15:07:42.711Z,1.50
2022-08-14T15:10:26.936Z,1.33
2022-08-14T15:13:03.559Z,1.20
2022-08-14T15:15:33.234Z,1.48
2022-08-14T15:18:01.061Z,1.40
2022-08-14T15:20:30.559Z,1.15
2022-08-14T15:23:07.976Z,1.23
2022-08-14T15:25:40.773Z,1.45
2022-08-14T15:28:11.668Z,1.30
2022-08-14T15:30:42.024Z,1.30
2022-08-14T15:33:10.533Z,1.30
2022-08-14T15:35:45.967Z,1.45
2022-08-14T15:38:13.784Z,1.33
2022-08-14T15:43:18.921Z,1.45
2022-08-14T15:45:47.074Z,1.60
2022-08-14T15:48:22.215Z,1.42
2022-08-14T15:50:50.752Z,1.40
2022-08-14T15:53:20.579Z,1.02
2022-08-14T15:55:48.776Z,1.02
2022-08-14T15:58:21.143Z,1.25
2022-08-14T16:01:08.077Z,1.40
2022-08-14T16:03:40.889Z,1.20
2022-08-14T16:06:15.481Z,1.40
2022-08-14T16:08:58.908Z,1.63
2022-08-14T16:11:33.080Z,1.70
2022-08-14T16:14:01.099Z,1.85
2022-08-14T16:16:50.866Z,1.58
2022-08-14T16:19:20.016Z,1.58
2022-08-14T16:22:02.126Z,1.60
2022-08-14T16:25:00.120Z,1.77
2022-08-14T16:27:37.310Z,1.80
2022-08-14T16:30:24.641Z,1.63
2022-08-14T16:32:56.221Z,1.75
2022-08-14T16:35:42.431Z,2.17
2022-08-14T16:38:35.754Z,1.67
2022-08-14T16:41:29.394Z,2.20
2022-08-14T16:44:22.129Z,1.65
2022-08-14T16:46:57.209Z,1.98
2022-08-14T16:49:35.347Z,1.60
2022-08-14T16:52:24.989Z,1.77
2022-08-14T16:55:07.841Z,1.85
2022-08-14T16:57:50.296Z,1.77
2022-08-14T17:00:43.190Z,1.50
2022-08-14T17:03:12.756Z,1.40
2022-08-14T17:05:43.510Z,1.45
2022-08-14T17:08:32.053Z,1.60
2022-08-14T17:11:10.558Z,2.22
2022-08-14T17:13:58.041Z,1.30
2022-08-14T17:16:31.025Z,1.55
2022-08-14T17:19:01.732Z,1.55
2022-08-14T17:21:32.360Z,2.00
2022-08-14T17:24:51.457Z,1.55
2022-08-14T17:26:55.658Z,1.50
2022-08-14T17:29:31.506Z,1.77
2022-08-14T17:32:19.251Z,1.50
2022-08-14T17:34:55.428Z,1.80
2022-08-14T17:37:44.900Z,1.98
2022-08-14T17:40:19.380Z,2.00
2022-08-14T17:42:51.340Z,1.80
2022-08-14T17:45:41.123Z,2.10
2022-08-14T17:49:10.557Z,3.30
2022-08-14T17:51:23.642Z,2.63
2022-08-14T17:54:01.218Z,2.17
2022-08-14T17:56:32.770Z,2.13
2022-08-14T17:59:05.714Z,1.85
2022-08-14T18:01:40.810Z,1.90
2022-08-14T18:04:28.279Z,2.28
2022-08-14T18:07:16.211Z,2.33
2022-08-14T18:09:56.234Z,2.22
2022-08-14T18:12:36.925Z,1.90
2022-08-14T18:15:14.311Z,2.15
2022-08-14T18:17:52.973Z,2.08
2022-08-14T18:21:40.068Z,1.95
2022-08-14T18:23:13.011Z,1.77
2022-08-14T18:25:51.818Z,1.67
2022-08-14T18:28:49.035Z,1.92
2022-08-14T18:31:21.616Z,1.63
2022-08-14T18:33:59.142Z,1.67
2022-08-14T18:36:54.373Z,1.90
2022-08-14T18:39:24.021Z,2.05
2022-08-14T18:41:55.640Z,2.25
2022-08-14T18:44:50.882Z,2.00
2022-08-14T18:47:25.621Z,1.98
2022-08-14T18:50:03.674Z,2.30
2022-08-14T18:52:52.846Z,2.45
2022-08-14T18:55:23.317Z,2.20
2022-08-14T18:58:00.038Z,2.47
2022-08-14T19:00:33.045Z,2.85
2022-08-14T19:03:05.368Z,2.65
2022-08-14T19:05:47.473Z,3.58
2022-08-14T19:08:18.581Z,3.40
2022-08-14T19:10:49.766Z,3.20
2022-08-14T19:13:48.409Z,3.63
2022-08-14T19:16:22.751Z,9.20
2022-08-14T19:19:00.443Z,7.57
2022-08-14T19:21:28.184Z,4.40
2022-08-14T19:24:27.322Z,3.97
2022-08-14T19:27:25.180Z,3.08
2022-08-14T19:30:20.065Z,4.20
2022-08-14T19:32:56.002Z,7.28
2022-08-14T19:35:49.888Z,3.88
2022-08-14T19:38:57.279Z,3.55
2022-08-14T19:41:29.965Z,3.08
2022-08-14T19:44:14.990Z,2.75
2022-08-14T19:47:02.599Z,3.15
2022-08-14T19:50:09.008Z,3.33
2022-08-14T19:52:35.222Z,3.03
2022-08-14T19:55:17.824Z,2.92
2022-08-14T19:57:57.918Z,2.90
2022-08-14T20:00:29.141Z,3.22
2022-08-14T20:03:11.935Z,3.90
2022-08-14T20:05:45.641Z,3.80
2022-08-14T20:11:01.431Z,4.40
2022-08-14T20:11:15.881Z,4.07
2022-08-14T20:14:11.611Z,3.97
2022-08-14T20:17:04.670Z,4.10
2022-08-14T20:19:37.749Z,4.40
2022-08-14T20:22:37.426Z,4.75
2022-08-14T20:25:18.996Z,4.28
2022-08-14T20:27:58.593Z,4.35
2022-08-14T20:30:34.822Z,4.38
2022-08-14T20:33:11.108Z,4.80
2022-08-14T20:35:38.928Z,3.72
2022-08-14T20:38:29.698Z,4.70
2022-08-14T20:41:10.837Z,5.18
2022-08-14T20:43:59.800Z,4.68
2022-08-14T20:46:31.316Z,4.75
2022-08-14T20:49:10.915Z,4.45
2022-08-14T20:51:59.111Z,4.95
2022-08-14T20:54:34.025Z,3.97
2022-08-14T20:57:17.964Z,4.40
2022-08-14T21:02:50.127Z,3.47
2022-08-14T21:05:22.490Z,3.55
2022-08-14T21:08:09.995Z,3.22
2022-08-14T21:10:53.227Z,3.13
2022-08-14T21:13:27.278Z,3.05
2022-08-14T21:16:34.485Z,3.10
2022-08-14T21:19:01.764Z,3.67
2022-08-14T21:21:41.423Z,2.78
2022-08-14T21:24:47.264Z,2.67
2022-08-14T21:27:13.170Z,3.20
2022-08-14T21:29:53.877Z,2.90
2022-08-14T21:32:34.655Z,3.17
2022-08-14T21:35:08.090Z,3.33
2022-08-14T21:37:44.176Z,2.55
2022-08-14T21:40:40.887Z,2.75
2022-08-14T21:43:05.025Z,2.53
2022-08-14T21:45:35.803Z,2.40
2022-08-14T21:48:09.239Z,2.17
2022-08-14T21:51:01.378Z,2.10
2022-08-14T21:53:32.815Z,1.58
2022-08-14T21:56:03.470Z,1.58
2022-08-14T21:58:53.936Z,1.90
2022-08-14T22:01:20.462Z,1.65
2022-08-14T22:03:54.404Z,1.90
2022-08-14T22:06:28.955Z,1.83
2022-08-14T22:08:58.321Z,2.10
2022-08-14T22:11:27.461Z,2.00
2022-08-14T22:13:56.386Z,1.90
2022-08-14T22:17:00.253Z,1.92
2022-08-14T22:19:20.907Z,1.45
2022-08-14T22:21:50.991Z,1.98
2022-08-14T22:24:37.733Z,1.70
2022-08-14T22:27:06.945Z,1.90
2022-08-14T22:29:34.657Z,1.92
2022-08-14T22:32:07.170Z,2.13
2022-08-14T22:34:34.915Z,1.80
2022-08-14T22:37:02.401Z,1.48
2022-08-14T22:40:17.700Z,1.70
2022-08-14T22:42:23.119Z,1.70
2022-08-14T22:44:51.914Z,1.50
2022-08-14T22:47:26.498Z,1.20
2022-08-14T22:50:29.007Z,1.70
2022-08-14T22:52:57.006Z,2.00
2022-08-14T22:55:27.395Z,1.50
2022-08-14T22:57:54.683Z,1.73
2022-08-14T23:00:25.181Z,1.40
2022-08-14T23:03:01.578Z,1.83
2022-08-14T23:05:39.657Z,1.80
2022-08-14T23:08:57.942Z,1.70
2022-08-14T23:11:05.153Z,1.85
2022-08-14T23:13:33.580Z,1.65
2022-08-14T23:16:00.724Z,1.60
2022-08-14T23:18:29.865Z,1.98
2022-08-14T23:20:57.629Z,1.63
2022-08-14T23:23:24.988Z,1.80
2022-08-14T23:26:00.033Z,2.10
2022-08-14T23:28:32.899Z,1.80
2022-08-14T23:31:05.566Z,1.85
2022-08-14T23:33:34.921Z,1.60
2022-08-14T23:36:04.677Z,1.52
2022-08-14T23:38:53.313Z,1.95
2022-08-14T23:41:21.264Z,2.33
2022-08-14T23:43:54.502Z,2.17
2022-08-14T23:46:23.402Z,1.75
2022-08-14T23:49:04.101Z,2.03
2022-08-14T23:51:36.517Z,1.70
2022-08-14T23:54:06.143Z,1.90
2022-08-14T23:56:59.990Z,1.77
2022-08-14T23:59:31.680Z,2.00
